Las horas y fechas están en horario UTC
Sumar 1 hora en el horario de Invierno y 2 horas en el de Verano

Informes METAR cercanos

 

LEZL - Sevilla (civ/Mil, Spain
Distance from station: NNE 24km
Actualización: 24/08/2019 09:30
Despejado
Despejado
 Viento del NE
Viento: NE 13 km/h
Temperatura: 25°C
Rocío: 10°C
Humedad: 39%
Barómetro: 1016 hPa
Resumen: Despejado
Visibility: greater than 10 km
2019/08/24 07:30 LEZL 240730Z 05007KT CAVOK 25/10 Q1016 NOSIG
LEMO - Moron (sp-Usafb), Spain
Distance from station: E 38km
Actualización: 24/08/2019 10:00
Despejado
Despejado
 Viento del varies
Viento: varies 2 km/h
Temperatura: 26°C
Rocío: 14°C
Humedad: 48%
Barómetro: 1016 hPa
Resumen: Despejado
Visibility: greater than 10 km
2019/08/24 08:00 LEMO 240800Z VRB01KT CAVOK 26/14 Q1016 NOSIG
LEJR - Jerez (civ/Mil), Spain
Distance from station: S 53km
Actualización: 24/08/2019 10:00
Despejado
Despejado
 Viento del varies
Viento: varies 2 km/h
Temperatura: 26°C
Rocío: 15°C
Humedad: 51%
Barómetro: 1016 hPa
Resumen: Despejado
Visibility: greater than 10 km
2019/08/24 08:00 LEJR 240800Z VRB01KT CAVOK 26/15 Q1016
 
LERT - Rota Naval Stati, Spain
Distance from station: SSO 71km
Actualización: 24/08/2019 09:00
Despejado
Despejado
 Viento del NE
Viento: NE 7 km/h
Temperatura: 22°C
Rocío: 17°C
Humedad: 73%
Barómetro: 1016 hPa
Resumen: Despejado
Visibility: greater than 10 km
2019/08/24 07:00 LERT 240700Z 05004KT CAVOK 22/17 Q1016 NOSIG
LEBA - Cordoba Airport, Spain
Distance from station: ENE 128km
Actualización: 24/08/2019 09:30
Despejado
Despejado
 Viento del SE
Viento: SE 6 km/h
Temperatura: 24°C
Rocío: 11°C
Humedad: 44%
Barómetro: 1017 hPa
Resumen: Despejado
Visibility: greater than 10 km
2019/08/24 07:30 LEBA 240730Z 14003KT 110V170 CAVOK 24/11 Q1017
LXGB - Gibraltar (civ/M, Gibraltar
Distance from station: SSE 137km
Actualización: 24/08/2019 09:50
Muy nuboso
Muy nuboso
 Viento del E
Viento: E 24 km/h
Temperatura: 24°C
Rocío: 21°C
Humedad: 83%
Barómetro: 1017 hPa
Clouds: Muy nuboso
Visibility: 10 km
Cloud details: Muy nuboso 610 m
2019/08/24 07:50 LXGB 240750Z 10013KT 9999 BKN020 24/21 Q1017 TEMPO FEW020 RMK WHT TEMPO BLU
 
LEMG - Malaga (civ/Mil), Spain
Distance from station: ESE 150km
Actualización: 24/08/2019 09:30
Parcialmente nuboso
Parcialmente nuboso
 Viento del ONO
Viento: ONO 6 km/h
Temperatura: 24°C
Rocío: 17°C
Humedad: 65%
Barómetro: 1018 hPa
Clouds: Parcialmente nuboso
Visibility: 10 km
Cloud details: Parcialmente nuboso 732 m
2019/08/24 07:30 LEMG 240730Z 29003KT 260V320 9999 SCT024 24/17 Q1018 NOSIG
GMTT - Tangier/Boukhalf, Morocco
Distance from station: S 169km
Actualización: 24/08/2019 09:30
Despejado
Despejado
 Viento del E
Viento: E 30 km/h
Temperatura: 26°C
Rocío: 16°C
Humedad: 54%
Barómetro: 1024 hPa
Resumen: Despejado
Visibility: greater than 10 km
2019/08/24 07:30 GMTT 240730Z 09016KT CAVOK 26/16 Q1024 NOSIG
LPFR - Faro, Portugal
Distance from station: O 172km
Actualización: 24/08/2019 09:30
Despejado
Despejado
 Viento del NNE
Viento: NNE 6 km/h
Temperatura: 25°C
Rocío: 15°C
Humedad: 54%
Barómetro: 1016 hPa
Resumen: Despejado
Visibility: greater than 10 km
2019/08/24 07:30 LPFR 240730Z 03003KT CAVOK 25/15 Q1016
 
LPBJ - Beja (por/Ger-Af, Portugal
Distance from station: ONO 192km
Actualización: 24/08/2019 09:00
Few Clouds
Few Clouds
 Viento del SSO
Viento: SSO 7 km/h
Temperatura: 20°C
Rocío: 12°C
Humedad: 60%
Barómetro: 1017 hPa
Clouds: Few Clouds
Visibility: 10 km
Cloud details: Few Clouds 1158 m
2019/08/24 07:00 LPBJ 240700Z 21004KT 9999 FEW038 20/12 Q1017
LEBZ - Talavera Ab/Bada, Spain
Distance from station: NNO 194km
Actualización: 24/08/2019 09:00
Despejado
Despejado
 Viento del varies
Viento: varies 4 km/h
Temperatura: 21°C
Rocío: 15°C
Humedad: 69%
Barómetro: 1017 hPa
Resumen: Despejado
Visibility: greater than 10 km
2019/08/24 07:00 LEBZ 240700Z VRB02KT CAVOK 21/15 Q1017
LEMD - Madrid/Barajas, Spain
Distance from station: NE 415km
Actualización: 24/08/2019 09:30
Despejado
Despejado
 Viento del varies
Viento: varies 2 km/h
Temperatura: 20°C
Rocío: 8°C
Humedad: 46%
Barómetro: 1021 hPa
Resumen: Despejado
Visibility: greater than 10 km
2019/08/24 07:30 LEMD 240730Z VRB01KT CAVOK 20/08 Q1021 NOSIG